sensor_id;sensor_type;location;lat;lon;timestamp;P1;durP1;ratioP1;P2;durP2;ratioP2
51179;SDS011;37243;49.814;8.652;2022-09-09T00:00:15;0.40;;;0.40;;
51179;SDS011;37243;49.814;8.652;2022-09-09T00:02:46;1.05;;;0.60;;
51179;SDS011;37243;49.814;8.652;2022-09-09T00:05:26;0.55;;;0.55;;
51179;SDS011;37243;49.814;8.652;2022-09-09T00:08:02;0.50;;;0.50;;
51179;SDS011;37243;49.814;8.652;2022-09-09T00:10:32;0.80;;;0.80;;
51179;SDS011;37243;49.814;8.652;2022-09-09T00:13:13;0.52;;;0.52;;
51179;SDS011;37243;49.814;8.652;2022-09-09T00:15:51;0.50;;;0.50;;
51179;SDS011;37243;49.814;8.652;2022-09-09T00:18:27;0.70;;;0.55;;
51179;SDS011;37243;49.814;8.652;2022-09-09T00:21:04;0.55;;;0.50;;
51179;SDS011;37243;49.814;8.652;2022-09-09T00:23:36;0.60;;;0.60;;
51179;SDS011;37243;49.814;8.652;2022-09-09T00:26:09;2.30;;;0.73;;
51179;SDS011;37243;49.814;8.652;2022-09-09T00:28:45;0.43;;;0.43;;
51179;SDS011;37243;49.814;8.652;2022-09-09T00:31:20;0.70;;;0.70;;
51179;SDS011;37243;49.814;8.652;2022-09-09T00:33:53;0.65;;;0.60;;
51179;SDS011;37243;49.814;8.652;2022-09-09T00:36:26;0.60;;;0.60;;
51179;SDS011;37243;49.814;8.652;2022-09-09T00:39:00;0.93;;;0.68;;
51179;SDS011;37243;49.814;8.652;2022-09-09T00:41:33;0.47;;;0.47;;
51179;SDS011;37243;49.814;8.652;2022-09-09T00:44:20;1.25;;;0.63;;
51179;SDS011;37243;49.814;8.652;2022-09-09T00:47:04;0.47;;;0.47;;
51179;SDS011;37243;49.814;8.652;2022-09-09T00:49:43;0.40;;;0.40;;
51179;SDS011;37243;49.814;8.652;2022-09-09T00:52:30;1.90;;;0.50;;
51179;SDS011;37243;49.814;8.652;2022-09-09T00:55:07;0.60;;;0.52;;
51179;SDS011;37243;49.814;8.652;2022-09-09T00:57:44;0.47;;;0.43;;
51179;SDS011;37243;49.814;8.652;2022-09-09T01:00:18;0.55;;;0.52;;
51179;SDS011;37243;49.814;8.652;2022-09-09T01:02:52;1.23;;;0.50;;
51179;SDS011;37243;49.814;8.652;2022-09-09T01:05:33;1.23;;;0.60;;
51179;SDS011;37243;49.814;8.652;2022-09-09T01:08:10;0.52;;;0.50;;
51179;SDS011;37243;49.814;8.652;2022-09-09T01:10:53;0.85;;;0.77;;
51179;SDS011;37243;49.814;8.652;2022-09-09T01:13:24;0.63;;;0.63;;
51179;SDS011;37243;49.814;8.652;2022-09-09T01:15:57;0.60;;;0.55;;
51179;SDS011;37243;49.814;8.652;2022-09-09T01:18:31;0.50;;;0.50;;
51179;SDS011;37243;49.814;8.652;2022-09-09T01:21:07;0.43;;;0.43;;
51179;SDS011;37243;49.814;8.652;2022-09-09T01:26:44;0.65;;;0.65;;
51179;SDS011;37243;49.814;8.652;2022-09-09T01:29:14;0.57;;;0.57;;
51179;SDS011;37243;49.814;8.652;2022-09-09T01:31:51;0.55;;;0.55;;
51179;SDS011;37243;49.814;8.652;2022-09-09T01:34:22;0.50;;;0.50;;
51179;SDS011;37243;49.814;8.652;2022-09-09T01:36:53;0.93;;;0.60;;
51179;SDS011;37243;49.814;8.652;2022-09-09T01:39:27;0.55;;;0.55;;
51179;SDS011;37243;49.814;8.652;2022-09-09T01:41:59;0.30;;;0.30;;
51179;SDS011;37243;49.814;8.652;2022-09-09T01:44:30;0.57;;;0.57;;
51179;SDS011;37243;49.814;8.652;2022-09-09T01:47:00;0.68;;;0.60;;
51179;SDS011;37243;49.814;8.652;2022-09-09T01:49:28;1.13;;;0.70;;
51179;SDS011;37243;49.814;8.652;2022-09-09T01:51:57;0.88;;;0.60;;
51179;SDS011;37243;49.814;8.652;2022-09-09T01:54:28;0.70;;;0.68;;
51179;SDS011;37243;49.814;8.652;2022-09-09T01:57:06;1.20;;;0.73;;
51179;SDS011;37243;49.814;8.652;2022-09-09T01:59:48;1.02;;;0.70;;
51179;SDS011;37243;49.814;8.652;2022-09-09T02:02:28;1.25;;;0.60;;
51179;SDS011;37243;49.814;8.652;2022-09-09T02:05:12;0.50;;;0.50;;
51179;SDS011;37243;49.814;8.652;2022-09-09T02:07:47;0.55;;;0.55;;
51179;SDS011;37243;49.814;8.652;2022-09-09T02:10:19;0.40;;;0.40;;
51179;SDS011;37243;49.814;8.652;2022-09-09T02:12:59;1.30;;;0.45;;
51179;SDS011;37243;49.814;8.652;2022-09-09T02:15:35;0.50;;;0.50;;
51179;SDS011;37243;49.814;8.652;2022-09-09T02:18:11;0.57;;;0.57;;
51179;SDS011;37243;49.814;8.652;2022-09-09T02:20:43;1.45;;;0.52;;
51179;SDS011;37243;49.814;8.652;2022-09-09T02:23:16;0.60;;;0.60;;
51179;SDS011;37243;49.814;8.652;2022-09-09T02:25:45;1.38;;;0.70;;
51179;SDS011;37243;49.814;8.652;2022-09-09T02:28:21;2.65;;;0.82;;
51179;SDS011;37243;49.814;8.652;2022-09-09T02:30:53;0.38;;;0.38;;
51179;SDS011;37243;49.814;8.652;2022-09-09T02:33:25;0.40;;;0.40;;
51179;SDS011;37243;49.814;8.652;2022-09-09T02:35:57;0.50;;;0.50;;
51179;SDS011;37243;49.814;8.652;2022-09-09T02:38:29;0.57;;;0.57;;
51179;SDS011;37243;49.814;8.652;2022-09-09T02:41:03;0.70;;;0.70;;
51179;SDS011;37243;49.814;8.652;2022-09-09T02:43:35;0.50;;;0.50;;
51179;SDS011;37243;49.814;8.652;2022-09-09T02:46:08;0.70;;;0.70;;
51179;SDS011;37243;49.814;8.652;2022-09-09T02:48:52;0.50;;;0.50;;
51179;SDS011;37243;49.814;8.652;2022-09-09T02:51:29;0.55;;;0.55;;
51179;SDS011;37243;49.814;8.652;2022-09-09T02:54:09;0.60;;;0.60;;
51179;SDS011;37243;49.814;8.652;2022-09-09T02:56:46;1.00;;;0.70;;
51179;SDS011;37243;49.814;8.652;2022-09-09T02:59:24;0.60;;;0.60;;
51179;SDS011;37243;49.814;8.652;2022-09-09T03:01:54;0.65;;;0.57;;
51179;SDS011;37243;49.814;8.652;2022-09-09T03:04:22;0.65;;;0.65;;
51179;SDS011;37243;49.814;8.652;2022-09-09T03:06:52;0.73;;;0.60;;
51179;SDS011;37243;49.814;8.652;2022-09-09T03:09:21;1.45;;;0.50;;
51179;SDS011;37243;49.814;8.652;2022-09-09T03:11:49;0.43;;;0.43;;
51179;SDS011;37243;49.814;8.652;2022-09-09T03:14:22;0.80;;;0.40;;
51179;SDS011;37243;49.814;8.652;2022-09-09T03:16:53;1.30;;;0.57;;
51179;SDS011;37243;49.814;8.652;2022-09-09T03:19:23;0.90;;;0.57;;
51179;SDS011;37243;49.814;8.652;2022-09-09T03:21:55;0.98;;;0.75;;
51179;SDS011;37243;49.814;8.652;2022-09-09T03:24:24;1.27;;;0.70;;
51179;SDS011;37243;49.814;8.652;2022-09-09T03:26:52;0.50;;;0.50;;
51179;SDS011;37243;49.814;8.652;2022-09-09T03:29:23;0.65;;;0.60;;
51179;SDS011;37243;49.814;8.652;2022-09-09T03:31:52;0.63;;;0.60;;
51179;SDS011;37243;49.814;8.652;2022-09-09T03:34:20;0.55;;;0.50;;
51179;SDS011;37243;49.814;8.652;2022-09-09T03:36:50;0.40;;;0.40;;
51179;SDS011;37243;49.814;8.652;2022-09-09T03:39:19;0.73;;;0.57;;
51179;SDS011;37243;49.814;8.652;2022-09-09T03:41:47;0.60;;;0.60;;
51179;SDS011;37243;49.814;8.652;2022-09-09T03:44:16;0.50;;;0.50;;
51179;SDS011;37243;49.814;8.652;2022-09-09T03:46:48;1.65;;;0.77;;
51179;SDS011;37243;49.814;8.652;2022-09-09T03:49:17;0.82;;;0.70;;
51179;SDS011;37243;49.814;8.652;2022-09-09T03:51:45;0.65;;;0.57;;
51179;SDS011;37243;49.814;8.652;2022-09-09T03:54:13;0.57;;;0.57;;
51179;SDS011;37243;49.814;8.652;2022-09-09T03:56:42;0.60;;;0.60;;
51179;SDS011;37243;49.814;8.652;2022-09-09T03:59:10;0.63;;;0.63;;
51179;SDS011;37243;49.814;8.652;2022-09-09T04:01:39;0.50;;;0.50;;
51179;SDS011;37243;49.814;8.652;2022-09-09T04:04:10;0.63;;;0.60;;
51179;SDS011;37243;49.814;8.652;2022-09-09T04:06:39;0.80;;;0.60;;
51179;SDS011;37243;49.814;8.652;2022-09-09T04:09:08;0.57;;;0.57;;
51179;SDS011;37243;49.814;8.652;2022-09-09T04:11:37;0.50;;;0.47;;
51179;SDS011;37243;49.814;8.652;2022-09-09T04:14:05;0.57;;;0.57;;
51179;SDS011;37243;49.814;8.652;2022-09-09T04:16:34;1.52;;;0.50;;
51179;SDS011;37243;49.814;8.652;2022-09-09T04:19:11;0.52;;;0.52;;
51179;SDS011;37243;49.814;8.652;2022-09-09T04:21:40;0.50;;;0.50;;
51179;SDS011;37243;49.814;8.652;2022-09-09T04:24:09;0.50;;;0.50;;
51179;SDS011;37243;49.814;8.652;2022-09-09T04:26:40;0.50;;;0.50;;
51179;SDS011;37243;49.814;8.652;2022-09-09T04:29:08;0.60;;;0.60;;
51179;SDS011;37243;49.814;8.652;2022-09-09T04:31:37;0.63;;;0.60;;
51179;SDS011;37243;49.814;8.652;2022-09-09T04:34:12;0.63;;;0.63;;
51179;SDS011;37243;49.814;8.652;2022-09-09T04:36:43;0.57;;;0.57;;
51179;SDS011;37243;49.814;8.652;2022-09-09T04:39:12;0.60;;;0.60;;
51179;SDS011;37243;49.814;8.652;2022-09-09T04:41:40;0.57;;;0.57;;
51179;SDS011;37243;49.814;8.652;2022-09-09T04:44:10;0.50;;;0.50;;
51179;SDS011;37243;49.814;8.652;2022-09-09T04:46:38;0.50;;;0.50;;
51179;SDS011;37243;49.814;8.652;2022-09-09T04:49:07;0.45;;;0.40;;
51179;SDS011;37243;49.814;8.652;2022-09-09T04:51:38;1.33;;;0.70;;
51179;SDS011;37243;49.814;8.652;2022-09-09T04:54:07;0.75;;;0.65;;
51179;SDS011;37243;49.814;8.652;2022-09-09T04:56:36;0.75;;;0.63;;
51179;SDS011;37243;49.814;8.652;2022-09-09T04:59:08;0.90;;;0.70;;
51179;SDS011;37243;49.814;8.652;2022-09-09T05:01:39;0.70;;;0.70;;
51179;SDS011;37243;49.814;8.652;2022-09-09T05:04:13;0.98;;;0.60;;
51179;SDS011;37243;49.814;8.652;2022-09-09T05:06:44;1.40;;;0.60;;
51179;SDS011;37243;49.814;8.652;2022-09-09T05:09:13;0.80;;;0.80;;
51179;SDS011;37243;49.814;8.652;2022-09-09T05:11:42;5.28;;;0.90;;
51179;SDS011;37243;49.814;8.652;2022-09-09T05:14:11;1.80;;;0.80;;
51179;SDS011;37243;49.814;8.652;2022-09-09T05:16:42;1.73;;;0.98;;
51179;SDS011;37243;49.814;8.652;2022-09-09T05:19:16;1.80;;;0.90;;
51179;SDS011;37243;49.814;8.652;2022-09-09T05:21:48;3.22;;;0.80;;
51179;SDS011;37243;49.814;8.652;2022-09-09T05:24:20;2.25;;;0.70;;
51179;SDS011;37243;49.814;8.652;2022-09-09T05:26:48;2.70;;;1.10;;
51179;SDS011;37243;49.814;8.652;2022-09-09T05:29:17;1.42;;;0.85;;
51179;SDS011;37243;49.814;8.652;2022-09-09T05:31:46;0.68;;;0.60;;
51179;SDS011;37243;49.814;8.652;2022-09-09T05:34:15;1.88;;;0.80;;
51179;SDS011;37243;49.814;8.652;2022-09-09T05:36:44;4.82;;;0.80;;
51179;SDS011;37243;49.814;8.652;2022-09-09T05:39:15;1.30;;;0.80;;
51179;SDS011;37243;49.814;8.652;2022-09-09T05:41:46;0.88;;;0.80;;
51179;SDS011;37243;49.814;8.652;2022-09-09T05:44:15;2.75;;;0.85;;
51179;SDS011;37243;49.814;8.652;2022-09-09T05:46:44;2.75;;;0.98;;
51179;SDS011;37243;49.814;8.652;2022-09-09T05:49:14;1.85;;;0.90;;
51179;SDS011;37243;49.814;8.652;2022-09-09T05:51:43;4.72;;;1.20;;
51179;SDS011;37243;49.814;8.652;2022-09-09T05:54:12;1.85;;;0.70;;
51179;SDS011;37243;49.814;8.652;2022-09-09T05:56:44;2.15;;;0.65;;
51179;SDS011;37243;49.814;8.652;2022-09-09T05:59:14;1.63;;;0.82;;
51179;SDS011;37243;49.814;8.652;2022-09-09T06:01:43;2.25;;;0.98;;
51179;SDS011;37243;49.814;8.652;2022-09-09T06:04:15;2.53;;;0.90;;
51179;SDS011;37243;49.814;8.652;2022-09-09T06:06:46;2.30;;;0.65;;
51179;SDS011;37243;49.814;8.652;2022-09-09T06:09:16;2.88;;;0.90;;
51179;SDS011;37243;49.814;8.652;2022-09-09T06:11:50;2.80;;;1.00;;
51179;SDS011;37243;49.814;8.652;2022-09-09T06:14:23;2.67;;;1.00;;
51179;SDS011;37243;49.814;8.652;2022-09-09T06:16:52;2.28;;;0.90;;
51179;SDS011;37243;49.814;8.652;2022-09-09T06:19:22;0.98;;;0.80;;
51179;SDS011;37243;49.814;8.652;2022-09-09T06:21:51;1.05;;;0.70;;
51179;SDS011;37243;49.814;8.652;2022-09-09T06:24:20;1.40;;;0.90;;
51179;SDS011;37243;49.814;8.652;2022-09-09T06:26:52;0.82;;;0.82;;
51179;SDS011;37243;49.814;8.652;2022-09-09T06:29:20;2.20;;;0.90;;
51179;SDS011;37243;49.814;8.652;2022-09-09T06:31:51;1.73;;;0.85;;
51179;SDS011;37243;49.814;8.652;2022-09-09T06:34:19;2.45;;;0.85;;
51179;SDS011;37243;49.814;8.652;2022-09-09T06:36:48;0.90;;;0.85;;
51179;SDS011;37243;49.814;8.652;2022-09-09T06:39:17;3.28;;;1.23;;
51179;SDS011;37243;49.814;8.652;2022-09-09T06:41:46;2.60;;;1.23;;
51179;SDS011;37243;49.814;8.652;2022-09-09T06:44:20;2.22;;;1.13;;
51179;SDS011;37243;49.814;8.652;2022-09-09T06:46:51;4.55;;;1.25;;
51179;SDS011;37243;49.814;8.652;2022-09-09T06:49:23;1.58;;;0.93;;
51179;SDS011;37243;49.814;8.652;2022-09-09T06:51:51;2.65;;;1.30;;
51179;SDS011;37243;49.814;8.652;2022-09-09T06:54:20;2.25;;;0.85;;
51179;SDS011;37243;49.814;8.652;2022-09-09T06:56:51;2.08;;;1.20;;
51179;SDS011;37243;49.814;8.652;2022-09-09T06:59:22;6.10;;;1.27;;
51179;SDS011;37243;49.814;8.652;2022-09-09T07:01:52;4.25;;;1.45;;
51179;SDS011;37243;49.814;8.652;2022-09-09T07:04:21;1.85;;;1.17;;
51179;SDS011;37243;49.814;8.652;2022-09-09T07:06:50;1.77;;;1.10;;
51179;SDS011;37243;49.814;8.652;2022-09-09T07:09:20;2.70;;;1.08;;
51179;SDS011;37243;49.814;8.652;2022-09-09T07:11:50;2.15;;;1.00;;
51179;SDS011;37243;49.814;8.652;2022-09-09T07:14:23;1.40;;;1.20;;
51179;SDS011;37243;49.814;8.652;2022-09-09T07:16:52;3.90;;;1.05;;
51179;SDS011;37243;49.814;8.652;2022-09-09T07:19:21;4.80;;;1.13;;
51179;SDS011;37243;49.814;8.652;2022-09-09T07:21:50;1.98;;;1.00;;
51179;SDS011;37243;49.814;8.652;2022-09-09T07:24:19;1.08;;;0.95;;
51179;SDS011;37243;49.814;8.652;2022-09-09T07:26:48;1.10;;;0.82;;
51179;SDS011;37243;49.814;8.652;2022-09-09T07:29:17;1.40;;;1.02;;
51179;SDS011;37243;49.814;8.652;2022-09-09T07:31:48;2.25;;;1.13;;
51179;SDS011;37243;49.814;8.652;2022-09-09T07:34:16;1.10;;;1.00;;
51179;SDS011;37243;49.814;8.652;2022-09-09T07:36:45;2.08;;;1.23;;
51179;SDS011;37243;49.814;8.652;2022-09-09T07:39:14;0.88;;;0.85;;
51179;SDS011;37243;49.814;8.652;2022-09-09T07:41:43;1.67;;;0.85;;
51179;SDS011;37243;49.814;8.652;2022-09-09T07:44:16;2.05;;;0.90;;
51179;SDS011;37243;49.814;8.652;2022-09-09T07:46:52;2.17;;;0.93;;
51179;SDS011;37243;49.814;8.652;2022-09-09T07:49:21;1.95;;;0.73;;
51179;SDS011;37243;49.814;8.652;2022-09-09T07:51:49;1.23;;;0.90;;
51179;SDS011;37243;49.814;8.652;2022-09-09T07:54:18;2.35;;;1.10;;
51179;SDS011;37243;49.814;8.652;2022-09-09T07:56:48;2.33;;;1.00;;
51179;SDS011;37243;49.814;8.652;2022-09-09T07:59:18;1.38;;;0.80;;
51179;SDS011;37243;49.814;8.652;2022-09-09T08:01:48;1.85;;;0.90;;
51179;SDS011;37243;49.814;8.652;2022-09-09T08:04:21;1.67;;;0.75;;
51179;SDS011;37243;49.814;8.652;2022-09-09T08:06:53;1.10;;;0.90;;
51179;SDS011;37243;49.814;8.652;2022-09-09T08:09:23;2.22;;;0.73;;
51179;SDS011;37243;49.814;8.652;2022-09-09T08:11:54;1.42;;;0.90;;
51179;SDS011;37243;49.814;8.652;2022-09-09T08:14:26;1.88;;;1.08;;
51179;SDS011;37243;49.814;8.652;2022-09-09T08:16:55;0.93;;;0.60;;
51179;SDS011;37243;49.814;8.652;2022-09-09T08:19:26;0.80;;;0.80;;
51179;SDS011;37243;49.814;8.652;2022-09-09T08:21:58;1.85;;;0.93;;
51179;SDS011;37243;49.814;8.652;2022-09-09T08:24:26;2.97;;;0.80;;
51179;SDS011;37243;49.814;8.652;2022-09-09T08:26:55;1.77;;;0.80;;
51179;SDS011;37243;49.814;8.652;2022-09-09T08:29:24;1.50;;;0.70;;
51179;SDS011;37243;49.814;8.652;2022-09-09T08:31:54;0.98;;;0.75;;
51179;SDS011;37243;49.814;8.652;2022-09-09T08:34:27;0.85;;;0.63;;
51179;SDS011;37243;49.814;8.652;2022-09-09T08:36:56;1.13;;;0.80;;
51179;SDS011;37243;49.814;8.652;2022-09-09T08:39:25;1.10;;;0.85;;
51179;SDS011;37243;49.814;8.652;2022-09-09T08:44:49;1.25;;;0.90;;
51179;SDS011;37243;49.814;8.652;2022-09-09T08:47:35;0.80;;;0.80;;
51179;SDS011;37243;49.814;8.652;2022-09-09T08:50:19;0.90;;;0.90;;
51179;SDS011;37243;49.814;8.652;2022-09-09T08:52:52;0.68;;;0.68;;
51179;SDS011;37243;49.814;8.652;2022-09-09T08:55:29;0.65;;;0.65;;
51179;SDS011;37243;49.814;8.652;2022-09-09T08:58:09;1.00;;;0.70;;
51179;SDS011;37243;49.814;8.652;2022-09-09T09:00:51;0.77;;;0.50;;
51179;SDS011;37243;49.814;8.652;2022-09-09T09:03:33;1.35;;;0.70;;
51179;SDS011;37243;49.814;8.652;2022-09-09T09:06:19;0.90;;;0.55;;
51179;SDS011;37243;49.814;8.652;2022-09-09T09:09:02;1.50;;;0.90;;
51179;SDS011;37243;49.814;8.652;2022-09-09T09:11:37;1.02;;;0.68;;
51179;SDS011;37243;49.814;8.652;2022-09-09T09:14:08;0.63;;;0.60;;
51179;SDS011;37243;49.814;8.652;2022-09-09T09:16:42;1.55;;;0.80;;
51179;SDS011;37243;49.814;8.652;2022-09-09T09:19:18;0.52;;;0.50;;
51179;SDS011;37243;49.814;8.652;2022-09-09T09:21:51;0.50;;;0.50;;
51179;SDS011;37243;49.814;8.652;2022-09-09T09:24:26;0.90;;;0.70;;
51179;SDS011;37243;49.814;8.652;2022-09-09T09:26:59;1.50;;;0.70;;
51179;SDS011;37243;49.814;8.652;2022-09-09T09:29:36;0.98;;;0.73;;
51179;SDS011;37243;49.814;8.652;2022-09-09T09:32:09;2.30;;;0.60;;
51179;SDS011;37243;49.814;8.652;2022-09-09T09:34:42;0.70;;;0.70;;
51179;SDS011;37243;49.814;8.652;2022-09-09T09:37:23;0.73;;;0.60;;
51179;SDS011;37243;49.814;8.652;2022-09-09T09:39:56;1.85;;;0.80;;
51179;SDS011;37243;49.814;8.652;2022-09-09T09:42:35;0.93;;;0.82;;
51179;SDS011;37243;49.814;8.652;2022-09-09T09:45:12;0.70;;;0.70;;
51179;SDS011;37243;49.814;8.652;2022-09-09T09:47:46;0.60;;;0.60;;
51179;SDS011;37243;49.814;8.652;2022-09-09T09:50:18;1.08;;;0.77;;
51179;SDS011;37243;49.814;8.652;2022-09-09T09:52:56;1.08;;;0.60;;
51179;SDS011;37243;49.814;8.652;2022-09-09T09:55:26;0.80;;;0.77;;
51179;SDS011;37243;49.814;8.652;2022-09-09T09:58:00;0.68;;;0.68;;
51179;SDS011;37243;49.814;8.652;2022-09-09T10:00:31;1.23;;;0.60;;
51179;SDS011;37243;49.814;8.652;2022-09-09T10:03:12;0.68;;;0.60;;
51179;SDS011;37243;49.814;8.652;2022-09-09T10:05:48;0.75;;;0.73;;
51179;SDS011;37243;49.814;8.652;2022-09-09T10:08:20;0.70;;;0.70;;
51179;SDS011;37243;49.814;8.652;2022-09-09T10:10:54;1.52;;;0.90;;
51179;SDS011;37243;49.814;8.652;2022-09-09T10:13:38;1.02;;;0.60;;
51179;SDS011;37243;49.814;8.652;2022-09-09T10:16:21;1.00;;;0.63;;
51179;SDS011;37243;49.814;8.652;2022-09-09T10:19:02;0.68;;;0.60;;
51179;SDS011;37243;49.814;8.652;2022-09-09T10:21:42;1.25;;;0.88;;
51179;SDS011;37243;49.814;8.652;2022-09-09T10:24:32;1.02;;;0.85;;
51179;SDS011;37243;49.814;8.652;2022-09-09T10:27:23;1.17;;;0.70;;
51179;SDS011;37243;49.814;8.652;2022-09-09T10:30:12;0.85;;;0.70;;
51179;SDS011;37243;49.814;8.652;2022-09-09T10:32:48;1.17;;;0.88;;
51179;SDS011;37243;49.814;8.652;2022-09-09T10:35:25;0.52;;;0.50;;
51179;SDS011;37243;49.814;8.652;2022-09-09T10:38:12;1.15;;;0.70;;
51179;SDS011;37243;49.814;8.652;2022-09-09T10:40:46;0.70;;;0.65;;
51179;SDS011;37243;49.814;8.652;2022-09-09T10:43:33;0.95;;;0.57;;
51179;SDS011;37243;49.814;8.652;2022-09-09T10:46:15;0.68;;;0.60;;
51179;SDS011;37243;49.814;8.652;2022-09-09T10:49:01;0.85;;;0.77;;
51179;SDS011;37243;49.814;8.652;2022-09-09T10:51:43;0.90;;;0.63;;
51179;SDS011;37243;49.814;8.652;2022-09-09T10:54:23;1.42;;;0.95;;
51179;SDS011;37243;49.814;8.652;2022-09-09T10:57:03;0.60;;;0.60;;
51179;SDS011;37243;49.814;8.652;2022-09-09T10:59:42;1.00;;;0.70;;
51179;SDS011;37243;49.814;8.652;2022-09-09T11:02:16;1.35;;;0.90;;
51179;SDS011;37243;49.814;8.652;2022-09-09T11:04:50;0.73;;;0.65;;
51179;SDS011;37243;49.814;8.652;2022-09-09T11:07:25;0.52;;;0.52;;
51179;SDS011;37243;49.814;8.652;2022-09-09T11:09:59;0.57;;;0.57;;
51179;SDS011;37243;49.814;8.652;2022-09-09T11:12:36;0.82;;;0.57;;
51179;SDS011;37243;49.814;8.652;2022-09-09T11:15:09;0.68;;;0.50;;
51179;SDS011;37243;49.814;8.652;2022-09-09T11:17:46;1.63;;;0.55;;
51179;SDS011;37243;49.814;8.652;2022-09-09T11:20:18;0.55;;;0.50;;
51179;SDS011;37243;49.814;8.652;2022-09-09T11:22:48;1.05;;;0.80;;
51179;SDS011;37243;49.814;8.652;2022-09-09T11:25:22;1.00;;;0.70;;
51179;SDS011;37243;49.814;8.652;2022-09-09T11:28:02;0.80;;;0.47;;
51179;SDS011;37243;49.814;8.652;2022-09-09T11:30:48;1.08;;;0.70;;
51179;SDS011;37243;49.814;8.652;2022-09-09T11:36:39;0.80;;;0.73;;
51179;SDS011;37243;49.814;8.652;2022-09-09T11:39:37;0.70;;;0.60;;
51179;SDS011;37243;49.814;8.652;2022-09-09T11:42:24;2.08;;;0.82;;
51179;SDS011;37243;49.814;8.652;2022-09-09T11:47:52;0.63;;;0.63;;
51179;SDS011;37243;49.814;8.652;2022-09-09T11:50:32;0.65;;;0.65;;
51179;SDS011;37243;49.814;8.652;2022-09-09T11:53:21;0.60;;;0.60;;
51179;SDS011;37243;49.814;8.652;2022-09-09T11:56:00;1.48;;;0.55;;
51179;SDS011;37243;49.814;8.652;2022-09-09T11:58:36;0.57;;;0.57;;
51179;SDS011;37243;49.814;8.652;2022-09-09T12:04:05;0.73;;;0.60;;
51179;SDS011;37243;49.814;8.652;2022-09-09T12:06:42;0.65;;;0.50;;
51179;SDS011;37243;49.814;8.652;2022-09-09T12:09:19;0.60;;;0.60;;
51179;SDS011;37243;49.814;8.652;2022-09-09T12:12:04;0.80;;;0.60;;
51179;SDS011;37243;49.814;8.652;2022-09-09T12:14:35;1.05;;;0.70;;
51179;SDS011;37243;49.814;8.652;2022-09-09T12:17:15;1.00;;;0.68;;
51179;SDS011;37243;49.814;8.652;2022-09-09T12:19:47;0.77;;;0.60;;
51179;SDS011;37243;49.814;8.652;2022-09-09T12:22:30;1.95;;;0.68;;
51179;SDS011;37243;49.814;8.652;2022-09-09T12:25:09;0.40;;;0.32;;
51179;SDS011;37243;49.814;8.652;2022-09-09T12:27:50;0.50;;;0.50;;
51179;SDS011;37243;49.814;8.652;2022-09-09T12:30:31;1.33;;;0.65;;
51179;SDS011;37243;49.814;8.652;2022-09-09T12:33:11;1.70;;;0.80;;
51179;SDS011;37243;49.814;8.652;2022-09-09T12:35:44;0.65;;;0.52;;
51179;SDS011;37243;49.814;8.652;2022-09-09T12:38:20;1.15;;;0.70;;
51179;SDS011;37243;49.814;8.652;2022-09-09T12:40:55;0.77;;;0.77;;
51179;SDS011;37243;49.814;8.652;2022-09-09T12:43:26;0.50;;;0.50;;
51179;SDS011;37243;49.814;8.652;2022-09-09T12:45:56;1.95;;;0.65;;
51179;SDS011;37243;49.814;8.652;2022-09-09T12:48:34;1.38;;;0.60;;
51179;SDS011;37243;49.814;8.652;2022-09-09T12:51:06;0.60;;;0.50;;
51179;SDS011;37243;49.814;8.652;2022-09-09T12:53:46;1.85;;;0.60;;
51179;SDS011;37243;49.814;8.652;2022-09-09T12:56:19;1.05;;;0.65;;
51179;SDS011;37243;49.814;8.652;2022-09-09T12:58:53;0.90;;;0.63;;
51179;SDS011;37243;49.814;8.652;2022-09-09T13:01:24;1.50;;;0.70;;
51179;SDS011;37243;49.814;8.652;2022-09-09T13:03:57;2.70;;;0.70;;
51179;SDS011;37243;49.814;8.652;2022-09-09T13:06:27;0.70;;;0.70;;
51179;SDS011;37243;49.814;8.652;2022-09-09T13:08:57;1.77;;;0.52;;
51179;SDS011;37243;49.814;8.652;2022-09-09T13:11:28;0.88;;;0.52;;
51179;SDS011;37243;49.814;8.652;2022-09-09T13:13:59;2.05;;;0.68;;
51179;SDS011;37243;49.814;8.652;2022-09-09T13:16:29;0.73;;;0.47;;
51179;SDS011;37243;49.814;8.652;2022-09-09T13:19:02;1.92;;;0.82;;
51179;SDS011;37243;49.814;8.652;2022-09-09T13:21:36;0.65;;;0.52;;
51179;SDS011;37243;49.814;8.652;2022-09-09T13:24:21;3.50;;;0.60;;
51179;SDS011;37243;49.814;8.652;2022-09-09T13:26:56;3.25;;;0.50;;
51179;SDS011;37243;49.814;8.652;2022-09-09T13:29:28;3.42;;;1.27;;
51179;SDS011;37243;49.814;8.652;2022-09-09T13:32:03;8.75;;;1.70;;
51179;SDS011;37243;49.814;8.652;2022-09-09T13:34:35;6.85;;;1.77;;
51179;SDS011;37243;49.814;8.652;2022-09-09T13:37:05;4.80;;;1.30;;
51179;SDS011;37243;49.814;8.652;2022-09-09T13:39:37;4.75;;;1.35;;
51179;SDS011;37243;49.814;8.652;2022-09-09T13:42:19;4.90;;;1.20;;
51179;SDS011;37243;49.814;8.652;2022-09-09T13:44:52;4.35;;;1.58;;
51179;SDS011;37243;49.814;8.652;2022-09-09T13:47:27;3.35;;;1.23;;
51179;SDS011;37243;49.814;8.652;2022-09-09T13:50:09;8.93;;;1.45;;
51179;SDS011;37243;49.814;8.652;2022-09-09T13:52:46;5.32;;;1.42;;
51179;SDS011;37243;49.814;8.652;2022-09-09T13:55:15;2.60;;;1.10;;
51179;SDS011;37243;49.814;8.652;2022-09-09T13:57:50;4.20;;;1.30;;
51179;SDS011;37243;49.814;8.652;2022-09-09T14:00:20;6.00;;;1.40;;
51179;SDS011;37243;49.814;8.652;2022-09-09T14:02:50;5.88;;;1.33;;
51179;SDS011;37243;49.814;8.652;2022-09-09T14:05:22;3.85;;;1.33;;
51179;SDS011;37243;49.814;8.652;2022-09-09T14:07:52;5.38;;;1.67;;
51179;SDS011;37243;49.814;8.652;2022-09-09T14:10:21;3.95;;;1.58;;
51179;SDS011;37243;49.814;8.652;2022-09-09T14:12:52;2.97;;;1.40;;
51179;SDS011;37243;49.814;8.652;2022-09-09T14:15:21;2.25;;;1.33;;
51179;SDS011;37243;49.814;8.652;2022-09-09T14:17:50;3.35;;;1.45;;
51179;SDS011;37243;49.814;8.652;2022-09-09T14:20:18;4.55;;;1.73;;
51179;SDS011;37243;49.814;8.652;2022-09-09T14:22:50;2.78;;;1.42;;
51179;SDS011;37243;49.814;8.652;2022-09-09T14:25:21;2.78;;;1.42;;
51179;SDS011;37243;49.814;8.652;2022-09-09T14:27:51;4.95;;;2.05;;
51179;SDS011;37243;49.814;8.652;2022-09-09T14:30:21;2.83;;;1.33;;
51179;SDS011;37243;49.814;8.652;2022-09-09T14:32:49;2.95;;;1.42;;
51179;SDS011;37243;49.814;8.652;2022-09-09T14:35:18;3.53;;;1.80;;
51179;SDS011;37243;49.814;8.652;2022-09-09T14:37:50;3.33;;;1.70;;
51179;SDS011;37243;49.814;8.652;2022-09-09T14:40:18;3.03;;;1.73;;
51179;SDS011;37243;49.814;8.652;2022-09-09T14:42:47;4.85;;;1.90;;
51179;SDS011;37243;49.814;8.652;2022-09-09T14:45:15;1.70;;;1.35;;
51179;SDS011;37243;49.814;8.652;2022-09-09T14:47:44;2.95;;;1.40;;
51179;SDS011;37243;49.814;8.652;2022-09-09T14:50:13;2.60;;;1.52;;
51179;SDS011;37243;49.814;8.652;2022-09-09T14:52:41;3.10;;;1.40;;
51179;SDS011;37243;49.814;8.652;2022-09-09T14:55:13;3.85;;;1.48;;
51179;SDS011;37243;49.814;8.652;2022-09-09T14:57:42;2.80;;;1.50;;
51179;SDS011;37243;49.814;8.652;2022-09-09T15:00:11;2.70;;;1.75;;
51179;SDS011;37243;49.814;8.652;2022-09-09T15:02:42;2.70;;;1.52;;
51179;SDS011;37243;49.814;8.652;2022-09-09T15:05:13;2.10;;;1.48;;
51179;SDS011;37243;49.814;8.652;2022-09-09T15:07:42;1.90;;;1.55;;
51179;SDS011;37243;49.814;8.652;2022-09-09T15:10:14;4.10;;;1.48;;
51179;SDS011;37243;49.814;8.652;2022-09-09T15:12:42;2.03;;;1.55;;
51179;SDS011;37243;49.814;8.652;2022-09-09T15:15:11;2.90;;;1.35;;
51179;SDS011;37243;49.814;8.652;2022-09-09T15:17:40;3.55;;;1.50;;
51179;SDS011;37243;49.814;8.652;2022-09-09T15:20:09;1.92;;;1.40;;
51179;SDS011;37243;49.814;8.652;2022-09-09T15:22:38;2.35;;;1.58;;
51179;SDS011;37243;49.814;8.652;2022-09-09T15:25:09;2.25;;;1.48;;
51179;SDS011;37243;49.814;8.652;2022-09-09T15:27:43;3.28;;;1.55;;
51179;SDS011;37243;49.814;8.652;2022-09-09T15:30:12;1.60;;;1.30;;
51179;SDS011;37243;49.814;8.652;2022-09-09T15:32:40;2.85;;;1.20;;
51179;SDS011;37243;49.814;8.652;2022-09-09T15:35:09;6.07;;;1.63;;
51179;SDS011;37243;49.814;8.652;2022-09-09T15:37:38;4.65;;;1.80;;